createdAt,value
2023-05-18T00:01:49.301Z,101043.78
2023-05-18T00:06:57.010Z,101022.97
2023-05-18T00:11:59.426Z,101032.19
2023-05-18T00:17:03.576Z,101032.47
2023-05-18T00:22:07.711Z,101026.13
2023-05-18T00:27:09.154Z,101023.63
2023-05-18T00:32:10.685Z,101037.66
2023-05-18T00:37:12.048Z,101034.66
2023-05-18T00:42:13.399Z,101030.25
2023-05-18T00:47:15.711Z,101015.16
2023-05-18T00:52:17.168Z,101033.91
2023-05-18T00:57:19.179Z,101021.88
2023-05-18T01:02:21.123Z,101013.59
2023-05-18T01:07:26.487Z,101049.59
2023-05-18T01:12:37.887Z,101022.75
2023-05-18T01:18:00.775Z,101039.16
2023-05-18T01:23:48.523Z,101028.59
2023-05-18T01:28:51.214Z,101034.03
2023-05-18T01:33:52.850Z,101029.81
2023-05-18T01:38:55.994Z,101031.50
2023-05-18T01:44:05.416Z,101036.41
2023-05-18T01:49:43.102Z,101031.50
2023-05-18T01:54:48.116Z,101036.31
2023-05-18T01:59:51.415Z,101029.38
2023-05-18T02:04:52.970Z,101030.22
2023-05-18T02:09:54.334Z,101023.50
2023-05-18T02:14:58.233Z,101025.97
2023-05-18T02:20:00.007Z,101026.63
2023-05-18T02:25:01.663Z,101027.91
2023-05-18T02:30:05.755Z,100994.75
2023-05-18T02:35:08.516Z,101018.06
2023-05-18T02:40:11.213Z,101002.22
2023-05-18T02:45:12.609Z,101020.00
2023-05-18T02:50:14.207Z,101027.03
2023-05-18T02:55:16.978Z,101035.84
2023-05-18T03:00:19.543Z,101026.06
2023-05-18T03:05:23.784Z,101028.69
2023-05-18T03:10:25.393Z,101037.28
2023-05-18T03:15:26.953Z,100991.34
2023-05-18T03:20:29.877Z,101033.50
2023-05-18T03:25:32.768Z,101033.31
2023-05-18T03:30:34.377Z,101027.69
2023-05-18T03:35:35.845Z,101014.97
2023-05-18T03:40:37.337Z,101035.84
2023-05-18T03:45:38.709Z,101032.63
2023-05-18T03:50:40.082Z,101050.50
2023-05-18T03:55:41.784Z,101044.03
2023-05-18T04:00:43.156Z,101050.94
2023-05-18T04:05:44.764Z,101043.25
2023-05-18T04:10:46.474Z,101056.00
2023-05-18T04:15:48.779Z,101045.22
2023-05-18T04:20:50.534Z,101049.16
2023-05-18T04:25:51.999Z,101068.75
2023-05-18T04:30:54.129Z,101062.16
2023-05-18T04:35:55.550Z,101060.97
2023-05-18T04:40:57.016Z,101060.03
2023-05-18T04:45:58.662Z,101064.59
2023-05-18T04:51:00.027Z,101047.16
2023-05-18T04:56:01.532Z,101070.13
2023-05-18T05:01:03.110Z,101068.41
2023-05-18T05:06:04.731Z,101060.59
2023-05-18T05:11:06.109Z,101074.56
2023-05-18T05:16:07.665Z,101055.66
2023-05-18T05:21:09.544Z,101054.38
2023-05-18T05:26:11.104Z,101074.28
2023-05-18T05:31:12.616Z,101056.81
2023-05-18T05:36:14.048Z,101055.66
2023-05-18T05:41:15.514Z,101081.78
2023-05-18T05:46:17.307Z,101076.13
2023-05-18T05:51:18.683Z,101080.94
2023-05-18T05:56:20.191Z,101069.66
2023-05-18T06:01:22.030Z,101083.19
2023-05-18T06:06:23.438Z,101064.13
2023-05-18T06:11:25.503Z,101084.06
2023-05-18T06:16:26.955Z,101091.94
2023-05-18T06:21:28.473Z,101101.19
2023-05-18T06:26:29.943Z,101096.50
2023-05-18T06:31:31.415Z,101092.53
2023-05-18T06:36:32.997Z,101103.66
2023-05-18T06:41:34.552Z,101106.47
2023-05-18T06:46:36.299Z,101101.47
2023-05-18T06:51:37.808Z,101087.94
2023-05-18T06:56:39.175Z,101092.28
2023-05-18T07:01:41.260Z,101111.28
2023-05-18T07:06:42.898Z,101120.91
2023-05-18T07:11:45.418Z,101108.06
2023-05-18T07:16:47.685Z,101110.38
2023-05-18T07:21:49.132Z,101096.66
2023-05-18T07:26:50.537Z,101110.94
2023-05-18T07:31:52.053Z,101099.75
2023-05-18T07:36:53.763Z,101095.16
2023-05-18T07:41:56.103Z,101097.91
2023-05-18T07:46:57.779Z,101102.94
2023-05-18T07:52:00.376Z,101093.16
2023-05-18T07:57:01.760Z,101081.47
2023-05-18T08:02:03.315Z,101078.81
2023-05-18T08:07:05.031Z,101088.09
2023-05-18T08:12:06.791Z,101066.81
2023-05-18T08:17:08.338Z,101083.22
2023-05-18T08:22:09.846Z,101078.28
2023-05-18T08:27:11.298Z,101070.31
2023-05-18T08:32:12.805Z,101073.22
2023-05-18T08:37:14.653Z,101063.19
2023-05-18T08:42:46.101Z,101055.72
2023-05-18T08:47:56.095Z,101053.34
2023-05-18T08:53:01.719Z,101054.31
2023-05-18T08:58:04.747Z,101052.78
2023-05-18T09:03:06.483Z,101034.06
2023-05-18T09:08:10.006Z,101022.06
2023-05-18T09:13:12.689Z,101027.25
2023-05-18T09:18:14.143Z,101017.75
2023-05-18T09:23:16.436Z,101023.16
2023-05-18T09:28:33.075Z,101029.63
2023-05-18T09:33:39.468Z,101020.28
2023-05-18T09:38:45.550Z,101003.72
2023-05-18T09:43:53.490Z,101021.38
2023-05-18T09:48:55.288Z,101008.03
2023-05-18T09:53:58.195Z,101003.91
2023-05-18T09:59:08.411Z,100999.19
2023-05-18T10:04:09.998Z,100985.56
2023-05-18T10:09:16.578Z,100994.94
2023-05-18T10:14:17.939Z,100993.69
2023-05-18T10:19:20.088Z,100973.59
2023-05-18T10:24:22.358Z,100986.38
2023-05-18T10:29:24.122Z,100971.91
2023-05-18T10:34:25.640Z,100968.50
2023-05-18T10:39:28.276Z,100955.34
2023-05-18T10:44:31.267Z,100975.44
2023-05-18T10:49:33.834Z,100956.16
2023-05-18T10:54:36.404Z,100953.94
2023-05-18T10:59:42.869Z,100940.44
2023-05-18T11:04:46.450Z,100960.72
2023-05-18T11:09:48.645Z,100955.81
2023-05-18T11:14:52.417Z,100960.72
2023-05-18T11:20:09.447Z,100957.47
2023-05-18T11:25:24.295Z,100943.97
2023-05-18T11:30:28.793Z,100940.94
2023-05-18T11:35:30.296Z,100937.16
2023-05-18T11:40:49.104Z,100928.47
2023-05-18T11:45:59.403Z,100934.38
2023-05-18T11:51:01.170Z,100922.25
2023-05-18T11:56:02.744Z,100922.38
2023-05-18T12:01:04.694Z,100929.94
2023-05-18T12:06:07.221Z,100913.38
2023-05-18T12:11:08.788Z,100908.41
2023-05-18T12:16:11.341Z,100912.44
2023-05-18T12:21:12.749Z,100914.53
2023-05-18T12:26:14.471Z,100892.88
2023-05-18T12:31:16.178Z,100886.13
2023-05-18T12:36:17.541Z,100877.97
2023-05-18T12:41:26.522Z,100897.50
2023-05-18T12:46:27.959Z,100883.34
2023-05-18T12:51:36.992Z,100891.09
2023-05-18T12:57:02.125Z,100882.06
2023-05-18T13:02:04.219Z,100882.97
2023-05-18T13:07:05.716Z,100864.56
2023-05-18T13:12:08.198Z,100857.78
2023-05-18T13:17:09.686Z,100878.66
2023-05-18T13:22:11.151Z,100874.78
2023-05-18T13:27:12.469Z,100853.00
2023-05-18T13:32:13.868Z,100858.06
2023-05-18T13:37:15.710Z,100854.28
2023-05-18T13:42:21.039Z,100854.22
2023-05-18T13:47:22.587Z,100850.69
2023-05-18T13:52:23.973Z,100839.50
2023-05-18T13:57:26.226Z,100822.00
2023-05-18T14:02:27.771Z,100831.66
2023-05-18T14:07:30.101Z,100835.19
2023-05-18T14:12:32.271Z,100828.06
2023-05-18T14:17:34.590Z,100837.13
2023-05-18T14:22:36.162Z,100810.56
2023-05-18T14:27:37.643Z,100810.56
2023-05-18T14:32:39.122Z,100804.69
2023-05-18T14:37:40.691Z,100803.53
2023-05-18T14:42:42.101Z,100797.31
2023-05-18T14:47:43.490Z,100789.38
2023-05-18T14:52:44.921Z,100783.84
2023-05-18T14:57:46.363Z,100796.50
2023-05-18T15:02:47.852Z,100784.38
2023-05-18T15:07:49.383Z,100788.81
2023-05-18T15:12:50.886Z,100797.28
2023-05-18T15:17:52.323Z,100798.13
2023-05-18T15:22:53.705Z,100792.22
2023-05-18T15:27:55.069Z,100760.66
2023-05-18T15:32:57.626Z,100780.06
2023-05-18T15:37:59.071Z,100778.72
2023-05-18T15:43:00.989Z,100785.47
2023-05-18T15:48:02.421Z,100773.16
2023-05-18T15:53:04.025Z,100749.03
2023-05-18T15:58:05.467Z,100770.31
2023-05-18T16:03:07.011Z,100743.97
2023-05-18T16:08:08.374Z,100755.59
2023-05-18T16:13:09.719Z,100753.59
2023-05-18T16:18:11.301Z,100757.97
2023-05-18T16:23:12.729Z,100760.50
2023-05-18T16:28:14.337Z,100766.91
2023-05-18T16:33:16.826Z,100757.13
2023-05-18T16:38:18.477Z,100770.47
2023-05-18T16:43:19.863Z,100772.00
2023-05-18T16:48:21.351Z,100771.63
2023-05-18T16:53:22.800Z,100778.38
2023-05-18T16:58:24.191Z,100779.53
2023-05-18T17:03:27.539Z,100782.56
2023-05-18T17:08:29.055Z,100775.25
2023-05-18T17:18:49.430Z,100782.50
2023-05-18T17:23:50.818Z,100785.53
2023-05-18T17:28:52.911Z,100789.22
2023-05-18T17:33:54.549Z,100782.78
2023-05-18T17:38:56.488Z,100789.50
2023-05-18T17:43:59.941Z,100781.72
2023-05-18T17:49:02.222Z,100769.41
2023-05-18T17:54:04.205Z,100781.16
2023-05-18T17:59:05.843Z,100786.19
2023-05-18T18:04:07.309Z,100784.44
2023-05-18T18:09:08.828Z,100796.88
2023-05-18T18:14:11.421Z,100791.28
2023-05-18T18:19:13.647Z,100789.88
2023-05-18T18:24:16.374Z,100805.34
2023-05-18T18:29:17.864Z,100794.09
2023-05-18T18:34:19.304Z,100783.63
2023-05-18T18:39:21.061Z,100795.22
2023-05-18T18:44:22.504Z,100812.63
2023-05-18T18:49:23.883Z,100803.47
2023-05-18T18:54:26.256Z,100802.13
2023-05-18T18:59:27.700Z,100817.69
2023-05-18T19:04:29.548Z,100817.38
2023-05-18T19:09:34.638Z,100829.75
2023-05-18T19:14:35.977Z,100828.13
2023-05-18T19:19:37.845Z,100851.03
2023-05-18T19:24:39.986Z,100859.53
2023-05-18T19:29:41.419Z,100858.97
2023-05-18T19:34:42.853Z,100843.56
2023-05-18T19:39:44.249Z,100877.78
2023-05-18T19:44:45.711Z,100871.22
2023-05-18T19:49:47.761Z,100875.16
2023-05-18T19:54:49.211Z,100880.81
2023-05-18T19:59:50.653Z,100870.28
2023-05-18T20:04:53.462Z,100889.66
2023-05-18T20:09:54.980Z,100877.34
2023-05-18T20:14:56.587Z,100895.31
2023-05-18T20:19:58.011Z,100885.16
2023-05-18T20:25:01.137Z,100887.44
2023-05-18T20:30:02.548Z,100894.75
2023-05-18T20:35:04.112Z,100912.00
2023-05-18T20:40:09.213Z,100918.06
2023-05-18T20:45:10.881Z,100913.53
2023-05-18T20:50:13.473Z,100912.25
2023-05-18T20:55:15.026Z,100919.31
2023-05-18T21:00:18.417Z,100907.88
2023-05-18T21:05:19.996Z,100915.94
2023-05-18T21:10:21.564Z,100927.22
2023-05-18T21:15:22.970Z,100941.88
2023-05-18T21:20:24.316Z,100935.41
2023-05-18T21:25:25.816Z,100937.50
2023-05-18T21:30:27.169Z,100926.44
2023-05-18T21:35:28.540Z,100940.13
2023-05-18T21:40:30.143Z,100914.84
2023-05-18T21:45:32.049Z,100927.13
2023-05-18T21:50:36.399Z,100925.28
2023-05-18T21:55:38.137Z,100930.03
2023-05-18T22:00:39.574Z,100913.53
2023-05-18T22:05:44.603Z,100920.13
2023-05-18T22:10:46.443Z,100905.84
2023-05-18T22:15:47.896Z,100937.06
2023-05-18T22:20:49.958Z,100937.47
2023-05-18T22:25:51.414Z,100919.06
2023-05-18T22:30:52.848Z,100924.69
2023-05-18T22:35:54.388Z,100909.53
2023-05-18T22:40:56.057Z,100924.25
2023-05-18T22:45:57.566Z,100910.31
2023-05-18T22:51:00.708Z,100890.38
2023-05-18T22:56:02.280Z,100933.31
2023-05-18T23:01:03.624Z,100918.31
2023-05-18T23:06:06.674Z,100916.75
2023-05-18T23:11:07.970Z,100925.88
2023-05-18T23:16:10.297Z,100925.84
2023-05-18T23:21:11.814Z,100932.03
2023-05-18T23:26:13.163Z,100913.81
2023-05-18T23:31:14.558Z,100907.03
2023-05-18T23:36:20.014Z,100892.44
2023-05-18T23:41:21.853Z,100894.56
2023-05-18T23:46:24.069Z,100904.41
2023-05-18T23:51:29.837Z,100905.66
2023-05-18T23:56:33.119Z,100887.75
